sensor_id;sensor_type;location;lat;lon;timestamp;temperature;humidity
43338;DHT22;28933;52.492;13.434;2024-01-16T00:02:33;3.20;95.30
43338;DHT22;28933;52.492;13.434;2024-01-16T00:05:19;3.30;95.40
43338;DHT22;28933;52.492;13.434;2024-01-16T00:08:05;3.30;95.40
43338;DHT22;28933;52.492;13.434;2024-01-16T00:10:51;3.40;95.50
43338;DHT22;28933;52.492;13.434;2024-01-16T00:13:37;3.40;95.60
43338;DHT22;28933;52.492;13.434;2024-01-16T00:16:23;3.30;95.60
43338;DHT22;28933;52.492;13.434;2024-01-16T00:19:10;3.30;95.70
43338;DHT22;28933;52.492;13.434;2024-01-16T00:21:56;3.30;95.90
43338;DHT22;28933;52.492;13.434;2024-01-16T00:24:42;3.20;96.00
43338;DHT22;28933;52.492;13.434;2024-01-16T00:27:27;3.30;96.10
43338;DHT22;28933;52.492;13.434;2024-01-16T00:30:14;3.30;96.20
43338;DHT22;28933;52.492;13.434;2024-01-16T00:33:00;3.30;96.30
43338;DHT22;28933;52.492;13.434;2024-01-16T00:35:46;3.30;96.60
43338;DHT22;28933;52.492;13.434;2024-01-16T00:38:35;3.20;96.40
43338;DHT22;28933;52.492;13.434;2024-01-16T00:41:21;3.10;96.50
43338;DHT22;28933;52.492;13.434;2024-01-16T00:44:07;3.10;96.60
43338;DHT22;28933;52.492;13.434;2024-01-16T00:46:53;3.00;96.60
43338;DHT22;28933;52.492;13.434;2024-01-16T00:49:39;2.80;96.60
43338;DHT22;28933;52.492;13.434;2024-01-16T00:52:26;2.70;96.70
43338;DHT22;28933;52.492;13.434;2024-01-16T00:55:12;2.50;97.00
43338;DHT22;28933;52.492;13.434;2024-01-16T00:57:57;2.40;97.10
43338;DHT22;28933;52.492;13.434;2024-01-16T01:00:43;2.30;97.20
43338;DHT22;28933;52.492;13.434;2024-01-16T01:03:29;2.20;97.30
43338;DHT22;28933;52.492;13.434;2024-01-16T01:06:15;2.10;97.40
43338;DHT22;28933;52.492;13.434;2024-01-16T01:09:01;1.90;97.60
43338;DHT22;28933;52.492;13.434;2024-01-16T01:11:48;1.70;97.60
43338;DHT22;28933;52.492;13.434;2024-01-16T01:14:34;1.60;97.80
43338;DHT22;28933;52.492;13.434;2024-01-16T01:17:20;1.40;97.80
43338;DHT22;28933;52.492;13.434;2024-01-16T01:20:10;1.40;98.00
43338;DHT22;28933;52.492;13.434;2024-01-16T01:22:57;1.40;98.20
43338;DHT22;28933;52.492;13.434;2024-01-16T01:25:44;1.30;98.20
43338;DHT22;28933;52.492;13.434;2024-01-16T01:28:30;1.20;98.30
43338;DHT22;28933;52.492;13.434;2024-01-16T01:31:16;1.10;98.40
43338;DHT22;28933;52.492;13.434;2024-01-16T01:34:02;1.10;98.50
43338;DHT22;28933;52.492;13.434;2024-01-16T01:36:50;1.10;98.60
43338;DHT22;28933;52.492;13.434;2024-01-16T01:39:36;1.00;98.60
43338;DHT22;28933;52.492;13.434;2024-01-16T01:42:22;1.00;98.70
43338;DHT22;28933;52.492;13.434;2024-01-16T01:45:11;1.00;98.80
43338;DHT22;28933;52.492;13.434;2024-01-16T01:47:57;1.00;99.00
43338;DHT22;28933;52.492;13.434;2024-01-16T01:50:43;1.00;98.80
43338;DHT22;28933;52.492;13.434;2024-01-16T01:53:30;1.00;98.80
43338;DHT22;28933;52.492;13.434;2024-01-16T01:56:20;1.00;98.90
43338;DHT22;28933;52.492;13.434;2024-01-16T01:59:07;1.00;98.90
43338;DHT22;28933;52.492;13.434;2024-01-16T02:01:54;1.10;99.00
43338;DHT22;28933;52.492;13.434;2024-01-16T02:04:41;1.10;99.00
43338;DHT22;28933;52.492;13.434;2024-01-16T02:07:28;1.10;99.00
43338;DHT22;28933;52.492;13.434;2024-01-16T02:10:14;1.10;99.10
43338;DHT22;28933;52.492;13.434;2024-01-16T02:13:00;1.10;99.10
43338;DHT22;28933;52.492;13.434;2024-01-16T02:15:46;1.10;99.10
43338;DHT22;28933;52.492;13.434;2024-01-16T02:18:33;1.10;99.20
43338;DHT22;28933;52.492;13.434;2024-01-16T02:21:22;1.10;99.20
43338;DHT22;28933;52.492;13.434;2024-01-16T02:24:11;1.20;99.30
43338;DHT22;28933;52.492;13.434;2024-01-16T02:26:57;1.20;99.30
43338;DHT22;28933;52.492;13.434;2024-01-16T02:29:43;1.20;99.30
43338;DHT22;28933;52.492;13.434;2024-01-16T02:32:30;1.20;99.30
43338;DHT22;28933;52.492;13.434;2024-01-16T02:35:16;1.20;99.30
43338;DHT22;28933;52.492;13.434;2024-01-16T02:38:04;1.20;99.40
43338;DHT22;28933;52.492;13.434;2024-01-16T02:40:50;1.30;99.40
43338;DHT22;28933;52.492;13.434;2024-01-16T02:43:36;1.30;99.50
43338;DHT22;28933;52.492;13.434;2024-01-16T02:46:22;1.30;99.50
43338;DHT22;28933;52.492;13.434;2024-01-16T02:49:08;1.40;99.50
43338;DHT22;28933;52.492;13.434;2024-01-16T02:51:54;1.40;99.50
43338;DHT22;28933;52.492;13.434;2024-01-16T02:54:40;1.40;99.40
43338;DHT22;28933;52.492;13.434;2024-01-16T02:57:26;1.40;99.40
43338;DHT22;28933;52.492;13.434;2024-01-16T03:00:12;1.40;99.40
43338;DHT22;28933;52.492;13.434;2024-01-16T03:03:00;1.30;99.40
43338;DHT22;28933;52.492;13.434;2024-01-16T03:05:47;1.40;99.50
43338;DHT22;28933;52.492;13.434;2024-01-16T03:08:33;1.40;99.60
43338;DHT22;28933;52.492;13.434;2024-01-16T03:11:19;1.40;99.60
43338;DHT22;28933;52.492;13.434;2024-01-16T03:14:05;1.50;99.70
43338;DHT22;28933;52.492;13.434;2024-01-16T03:16:51;1.50;99.60
43338;DHT22;28933;52.492;13.434;2024-01-16T03:19:37;1.50;99.70
43338;DHT22;28933;52.492;13.434;2024-01-16T03:22:23;1.50;99.70
43338;DHT22;28933;52.492;13.434;2024-01-16T03:25:10;1.50;99.70
43338;DHT22;28933;52.492;13.434;2024-01-16T03:27:59;1.50;99.70
43338;DHT22;28933;52.492;13.434;2024-01-16T03:30:45;1.60;99.80
43338;DHT22;28933;52.492;13.434;2024-01-16T03:33:30;1.60;99.90
43338;DHT22;28933;52.492;13.434;2024-01-16T03:36:16;1.70;99.90
43338;DHT22;28933;52.492;13.434;2024-01-16T03:39:03;1.80;99.90
43338;DHT22;28933;52.492;13.434;2024-01-16T03:41:49;1.90;99.90
43338;DHT22;28933;52.492;13.434;2024-01-16T03:44:41;1.90;99.90
43338;DHT22;28933;52.492;13.434;2024-01-16T03:47:27;2.00;99.90
43338;DHT22;28933;52.492;13.434;2024-01-16T03:50:13;2.00;99.90
43338;DHT22;28933;52.492;13.434;2024-01-16T03:52:58;2.10;99.90
43338;DHT22;28933;52.492;13.434;2024-01-16T03:55:44;2.10;99.90
43338;DHT22;28933;52.492;13.434;2024-01-16T03:58:30;2.20;99.90
43338;DHT22;28933;52.492;13.434;2024-01-16T04:01:16;2.20;99.90
43338;DHT22;28933;52.492;13.434;2024-01-16T04:04:02;2.30;99.90
43338;DHT22;28933;52.492;13.434;2024-01-16T04:06:48;2.20;99.90
43338;DHT22;28933;52.492;13.434;2024-01-16T04:09:34;2.30;99.90
43338;DHT22;28933;52.492;13.434;2024-01-16T04:12:20;2.30;99.90
43338;DHT22;28933;52.492;13.434;2024-01-16T04:15:07;2.30;99.80
43338;DHT22;28933;52.492;13.434;2024-01-16T04:17:53;2.20;99.90
43338;DHT22;28933;52.492;13.434;2024-01-16T04:20:39;2.20;99.80
43338;DHT22;28933;52.492;13.434;2024-01-16T04:23:25;2.20;99.90
43338;DHT22;28933;52.492;13.434;2024-01-16T04:26:11;2.30;99.90
43338;DHT22;28933;52.492;13.434;2024-01-16T04:28:57;2.30;99.80
43338;DHT22;28933;52.492;13.434;2024-01-16T04:31:43;2.30;99.80
43338;DHT22;28933;52.492;13.434;2024-01-16T04:34:29;2.30;99.80
43338;DHT22;28933;52.492;13.434;2024-01-16T04:37:15;2.30;99.70
43338;DHT22;28933;52.492;13.434;2024-01-16T04:40:01;2.40;99.70
43338;DHT22;28933;52.492;13.434;2024-01-16T04:42:47;2.40;99.70
43338;DHT22;28933;52.492;13.434;2024-01-16T04:45:33;2.40;99.60
43338;DHT22;28933;52.492;13.434;2024-01-16T04:48:19;2.40;99.60
43338;DHT22;28933;52.492;13.434;2024-01-16T04:51:05;2.40;99.60
43338;DHT22;28933;52.492;13.434;2024-01-16T04:53:51;2.30;99.60
43338;DHT22;28933;52.492;13.434;2024-01-16T04:56:38;2.20;99.60
43338;DHT22;28933;52.492;13.434;2024-01-16T04:59:24;2.30;99.70
43338;DHT22;28933;52.492;13.434;2024-01-16T05:02:10;2.30;99.70
43338;DHT22;28933;52.492;13.434;2024-01-16T05:04:56;2.30;99.70
43338;DHT22;28933;52.492;13.434;2024-01-16T05:07:43;2.30;99.70
43338;DHT22;28933;52.492;13.434;2024-01-16T05:10:28;2.30;99.80
43338;DHT22;28933;52.492;13.434;2024-01-16T05:13:14;2.30;99.80
43338;DHT22;28933;52.492;13.434;2024-01-16T05:16:00;2.40;99.80
43338;DHT22;28933;52.492;13.434;2024-01-16T05:18:46;2.40;99.80
43338;DHT22;28933;52.492;13.434;2024-01-16T05:21:32;2.40;99.70
43338;DHT22;28933;52.492;13.434;2024-01-16T05:24:18;2.40;99.70
43338;DHT22;28933;52.492;13.434;2024-01-16T05:27:04;2.40;99.60
43338;DHT22;28933;52.492;13.434;2024-01-16T05:29:50;2.40;99.60
43338;DHT22;28933;52.492;13.434;2024-01-16T05:32:36;2.40;99.70
43338;DHT22;28933;52.492;13.434;2024-01-16T05:35:22;2.30;99.50
43338;DHT22;28933;52.492;13.434;2024-01-16T05:38:08;2.20;99.60
43338;DHT22;28933;52.492;13.434;2024-01-16T05:40:54;2.20;99.70
43338;DHT22;28933;52.492;13.434;2024-01-16T05:43:40;2.30;99.80
43338;DHT22;28933;52.492;13.434;2024-01-16T05:46:26;2.30;99.80
43338;DHT22;28933;52.492;13.434;2024-01-16T05:49:11;2.30;99.80
43338;DHT22;28933;52.492;13.434;2024-01-16T05:51:57;2.30;99.80
43338;DHT22;28933;52.492;13.434;2024-01-16T05:54:43;2.30;99.80
43338;DHT22;28933;52.492;13.434;2024-01-16T05:57:29;2.30;99.70
43338;DHT22;28933;52.492;13.434;2024-01-16T06:00:19;2.20;99.60
43338;DHT22;28933;52.492;13.434;2024-01-16T06:03:08;2.10;99.60
43338;DHT22;28933;52.492;13.434;2024-01-16T06:05:54;2.10;99.60
43338;DHT22;28933;52.492;13.434;2024-01-16T06:08:40;2.20;99.60
43338;DHT22;28933;52.492;13.434;2024-01-16T06:11:32;2.10;99.60
43338;DHT22;28933;52.492;13.434;2024-01-16T06:14:18;2.10;99.60
43338;DHT22;28933;52.492;13.434;2024-01-16T06:17:07;2.10;99.60
43338;DHT22;28933;52.492;13.434;2024-01-16T06:19:53;2.10;99.60
43338;DHT22;28933;52.492;13.434;2024-01-16T06:22:39;2.10;99.60
43338;DHT22;28933;52.492;13.434;2024-01-16T06:25:25;2.10;99.50
43338;DHT22;28933;52.492;13.434;2024-01-16T14:45:50;4.80;98.30
43338;DHT22;28933;52.492;13.434;2024-01-16T14:48:38;4.80;98.30
43338;DHT22;28933;52.492;13.434;2024-01-16T14:51:29;4.80;98.40
43338;DHT22;28933;52.492;13.434;2024-01-16T14:54:15;4.80;98.40
43338;DHT22;28933;52.492;13.434;2024-01-16T14:57:01;4.80;98.40
43338;DHT22;28933;52.492;13.434;2024-01-16T14:59:47;4.80;98.40
43338;DHT22;28933;52.492;13.434;2024-01-16T15:02:33;4.80;98.40
43338;DHT22;28933;52.492;13.434;2024-01-16T15:05:20;4.80;98.40
43338;DHT22;28933;52.492;13.434;2024-01-16T15:08:06;4.80;98.40
43338;DHT22;28933;52.492;13.434;2024-01-16T15:10:52;4.80;98.40
43338;DHT22;28933;52.492;13.434;2024-01-16T15:13:38;4.70;98.40
43338;DHT22;28933;52.492;13.434;2024-01-16T15:16:24;4.70;98.40
43338;DHT22;28933;52.492;13.434;2024-01-16T15:19:10;4.70;98.40
43338;DHT22;28933;52.492;13.434;2024-01-16T15:21:56;4.60;98.40
43338;DHT22;28933;52.492;13.434;2024-01-16T15:24:43;4.60;98.40
43338;DHT22;28933;52.492;13.434;2024-01-16T15:27:29;4.50;98.50
43338;DHT22;28933;52.492;13.434;2024-01-16T15:30:15;4.50;98.50
43338;DHT22;28933;52.492;13.434;2024-01-16T15:33:02;4.50;98.50
43338;DHT22;28933;52.492;13.434;2024-01-16T15:35:49;4.40;98.60
43338;DHT22;28933;52.492;13.434;2024-01-16T15:38:35;4.40;98.60
43338;DHT22;28933;52.492;13.434;2024-01-16T15:41:21;4.40;98.70
43338;DHT22;28933;52.492;13.434;2024-01-16T15:44:07;4.40;98.70
43338;DHT22;28933;52.492;13.434;2024-01-16T15:47:00;4.30;98.80
43338;DHT22;28933;52.492;13.434;2024-01-16T15:49:46;4.40;98.90
43338;DHT22;28933;52.492;13.434;2024-01-16T15:52:33;4.40;98.90
43338;DHT22;28933;52.492;13.434;2024-01-16T15:55:20;4.40;98.90
43338;DHT22;28933;52.492;13.434;2024-01-16T15:58:06;4.40;99.00
43338;DHT22;28933;52.492;13.434;2024-01-16T16:00:51;4.30;99.00
43338;DHT22;28933;52.492;13.434;2024-01-16T16:03:37;4.40;99.20
43338;DHT22;28933;52.492;13.434;2024-01-16T16:06:24;4.40;99.20
43338;DHT22;28933;52.492;13.434;2024-01-16T16:09:10;4.40;99.30
43338;DHT22;28933;52.492;13.434;2024-01-16T16:11:56;4.30;99.30
43338;DHT22;28933;52.492;13.434;2024-01-16T16:14:42;4.30;99.40
43338;DHT22;28933;52.492;13.434;2024-01-16T16:17:28;4.30;99.40
43338;DHT22;28933;52.492;13.434;2024-01-16T16:20:14;4.30;99.50
43338;DHT22;28933;52.492;13.434;2024-01-16T16:23:00;4.30;99.50
43338;DHT22;28933;52.492;13.434;2024-01-16T16:25:46;4.30;99.60
43338;DHT22;28933;52.492;13.434;2024-01-16T16:28:32;4.30;99.60
43338;DHT22;28933;52.492;13.434;2024-01-16T16:31:18;4.30;99.60
43338;DHT22;28933;52.492;13.434;2024-01-16T16:34:07;4.30;99.60
43338;DHT22;28933;52.492;13.434;2024-01-16T16:36:53;4.30;99.70
43338;DHT22;28933;52.492;13.434;2024-01-16T16:39:39;4.30;99.70
43338;DHT22;28933;52.492;13.434;2024-01-16T16:42:25;4.40;99.70
43338;DHT22;28933;52.492;13.434;2024-01-16T16:45:13;4.40;99.70
43338;DHT22;28933;52.492;13.434;2024-01-16T16:47:58;4.40;99.80
43338;DHT22;28933;52.492;13.434;2024-01-16T16:50:44;4.40;99.80
43338;DHT22;28933;52.492;13.434;2024-01-16T16:53:30;4.40;99.80
43338;DHT22;28933;52.492;13.434;2024-01-16T16:56:17;4.40;99.80
43338;DHT22;28933;52.492;13.434;2024-01-16T16:59:03;4.50;99.80
43338;DHT22;28933;52.492;13.434;2024-01-16T17:01:50;4.50;99.80
43338;DHT22;28933;52.492;13.434;2024-01-16T17:04:37;4.50;99.80
43338;DHT22;28933;52.492;13.434;2024-01-16T17:07:23;4.50;99.80
43338;DHT22;28933;52.492;13.434;2024-01-16T17:10:09;4.50;99.80
43338;DHT22;28933;52.492;13.434;2024-01-16T17:12:55;4.60;99.90
43338;DHT22;28933;52.492;13.434;2024-01-16T17:15:42;4.60;99.80
43338;DHT22;28933;52.492;13.434;2024-01-16T17:18:29;4.60;99.80
43338;DHT22;28933;52.492;13.434;2024-01-16T17:21:18;4.60;99.80
43338;DHT22;28933;52.492;13.434;2024-01-16T17:24:04;4.60;99.70
43338;DHT22;28933;52.492;13.434;2024-01-16T17:26:50;4.60;99.70
43338;DHT22;28933;52.492;13.434;2024-01-16T17:29:36;4.70;99.70
43338;DHT22;28933;52.492;13.434;2024-01-16T17:32:24;4.60;99.60
43338;DHT22;28933;52.492;13.434;2024-01-16T17:35:10;4.60;99.50
43338;DHT22;28933;52.492;13.434;2024-01-16T17:37:59;4.50;99.50
43338;DHT22;28933;52.492;13.434;2024-01-16T17:40:45;4.50;99.40
43338;DHT22;28933;52.492;13.434;2024-01-16T17:43:31;4.50;99.30
43338;DHT22;28933;52.492;13.434;2024-01-16T17:46:17;4.50;99.30
43338;DHT22;28933;52.492;13.434;2024-01-16T17:49:04;4.40;99.30
43338;DHT22;28933;52.492;13.434;2024-01-16T17:51:50;4.50;99.30
43338;DHT22;28933;52.492;13.434;2024-01-16T17:54:39;4.50;99.20
43338;DHT22;28933;52.492;13.434;2024-01-16T17:57:27;4.40;99.20
43338;DHT22;28933;52.492;13.434;2024-01-16T18:00:14;4.50;99.20
43338;DHT22;28933;52.492;13.434;2024-01-16T18:03:03;4.50;99.20
43338;DHT22;28933;52.492;13.434;2024-01-16T18:05:49;4.40;99.10
43338;DHT22;28933;52.492;13.434;2024-01-16T18:08:36;4.50;99.10
43338;DHT22;28933;52.492;13.434;2024-01-16T18:11:23;4.50;99.10
43338;DHT22;28933;52.492;13.434;2024-01-16T18:14:08;4.50;99.20
43338;DHT22;28933;52.492;13.434;2024-01-16T18:16:57;4.50;99.00
43338;DHT22;28933;52.492;13.434;2024-01-16T18:19:42;4.50;99.00
43338;DHT22;28933;52.492;13.434;2024-01-16T18:22:29;4.40;98.90
43338;DHT22;28933;52.492;13.434;2024-01-16T18:25:15;4.50;99.00
43338;DHT22;28933;52.492;13.434;2024-01-16T18:28:01;4.50;99.00
43338;DHT22;28933;52.492;13.434;2024-01-16T18:30:48;4.50;98.90
43338;DHT22;28933;52.492;13.434;2024-01-16T18:33:34;4.50;98.90
43338;DHT22;28933;52.492;13.434;2024-01-16T18:36:20;4.60;98.90
43338;DHT22;28933;52.492;13.434;2024-01-16T18:39:06;4.50;98.90
43338;DHT22;28933;52.492;13.434;2024-01-16T18:41:58;4.50;98.90
43338;DHT22;28933;52.492;13.434;2024-01-16T18:44:44;4.50;98.90
43338;DHT22;28933;52.492;13.434;2024-01-16T18:47:31;4.50;98.90
43338;DHT22;28933;52.492;13.434;2024-01-16T18:50:17;4.50;98.80
43338;DHT22;28933;52.492;13.434;2024-01-16T18:53:03;4.40;98.80
43338;DHT22;28933;52.492;13.434;2024-01-16T18:55:49;4.40;98.80
43338;DHT22;28933;52.492;13.434;2024-01-16T18:58:37;4.40;98.80
43338;DHT22;28933;52.492;13.434;2024-01-16T19:01:23;4.30;98.80
43338;DHT22;28933;52.492;13.434;2024-01-16T19:04:14;4.30;99.00
43338;DHT22;28933;52.492;13.434;2024-01-16T19:07:03;4.30;98.90
43338;DHT22;28933;52.492;13.434;2024-01-16T19:09:57;4.30;98.80
43338;DHT22;28933;52.492;13.434;2024-01-16T19:12:44;4.30;98.80
43338;DHT22;28933;52.492;13.434;2024-01-16T19:15:33;4.30;98.80
43338;DHT22;28933;52.492;13.434;2024-01-16T19:18:19;4.30;98.80
43338;DHT22;28933;52.492;13.434;2024-01-16T19:21:06;4.20;98.80
43338;DHT22;28933;52.492;13.434;2024-01-16T19:23:53;4.30;98.90
43338;DHT22;28933;52.492;13.434;2024-01-16T19:26:38;4.30;98.90
43338;DHT22;28933;52.492;13.434;2024-01-16T19:29:24;4.30;98.90
43338;DHT22;28933;52.492;13.434;2024-01-16T19:32:11;4.30;98.90
43338;DHT22;28933;52.492;13.434;2024-01-16T19:34:57;4.30;98.80
43338;DHT22;28933;52.492;13.434;2024-01-16T19:37:42;4.30;98.80
43338;DHT22;28933;52.492;13.434;2024-01-16T19:40:30;4.30;98.80
43338;DHT22;28933;52.492;13.434;2024-01-16T19:43:16;4.30;98.80
43338;DHT22;28933;52.492;13.434;2024-01-16T19:46:02;4.30;98.70
43338;DHT22;28933;52.492;13.434;2024-01-16T19:48:48;4.20;98.70
43338;DHT22;28933;52.492;13.434;2024-01-16T19:51:40;4.20;98.70
43338;DHT22;28933;52.492;13.434;2024-01-16T19:54:26;4.20;98.70
43338;DHT22;28933;52.492;13.434;2024-01-16T19:57:12;4.20;98.70
43338;DHT22;28933;52.492;13.434;2024-01-16T19:59:58;4.30;98.80
43338;DHT22;28933;52.492;13.434;2024-01-16T20:02:47;4.30;98.70
43338;DHT22;28933;52.492;13.434;2024-01-16T20:05:33;4.30;98.70
43338;DHT22;28933;52.492;13.434;2024-01-16T20:08:28;4.30;98.70
43338;DHT22;28933;52.492;13.434;2024-01-16T20:11:14;4.30;98.70
43338;DHT22;28933;52.492;13.434;2024-01-16T20:14:00;4.30;98.70
43338;DHT22;28933;52.492;13.434;2024-01-16T20:16:46;4.30;98.60
43338;DHT22;28933;52.492;13.434;2024-01-16T20:19:32;4.30;98.70
43338;DHT22;28933;52.492;13.434;2024-01-16T20:22:19;4.30;98.60
43338;DHT22;28933;52.492;13.434;2024-01-16T20:25:06;4.30;98.80
43338;DHT22;28933;52.492;13.434;2024-01-16T20:27:52;4.20;98.60
43338;DHT22;28933;52.492;13.434;2024-01-16T20:30:38;4.30;98.60
43338;DHT22;28933;52.492;13.434;2024-01-16T20:33:26;4.30;98.50
43338;DHT22;28933;52.492;13.434;2024-01-16T20:36:12;4.20;98.50
43338;DHT22;28933;52.492;13.434;2024-01-16T20:38:59;4.20;98.40
43338;DHT22;28933;52.492;13.434;2024-01-16T20:41:45;4.20;98.40
43338;DHT22;28933;52.492;13.434;2024-01-16T20:44:31;4.20;98.60
43338;DHT22;28933;52.492;13.434;2024-01-16T20:47:18;4.20;98.40
43338;DHT22;28933;52.492;13.434;2024-01-16T20:50:04;4.20;98.40
43338;DHT22;28933;52.492;13.434;2024-01-16T20:52:51;4.20;98.40
43338;DHT22;28933;52.492;13.434;2024-01-16T20:55:37;4.20;98.40
43338;DHT22;28933;52.492;13.434;2024-01-16T20:58:24;4.20;98.40
43338;DHT22;28933;52.492;13.434;2024-01-16T21:01:10;4.10;98.40
43338;DHT22;28933;52.492;13.434;2024-01-16T21:03:56;4.10;98.40
43338;DHT22;28933;52.492;13.434;2024-01-16T21:06:41;4.10;98.30
43338;DHT22;28933;52.492;13.434;2024-01-16T21:09:28;4.10;98.30
43338;DHT22;28933;52.492;13.434;2024-01-16T21:12:14;4.00;98.30
43338;DHT22;28933;52.492;13.434;2024-01-16T21:15:07;4.10;98.30
43338;DHT22;28933;52.492;13.434;2024-01-16T21:17:53;4.10;98.20
43338;DHT22;28933;52.492;13.434;2024-01-16T21:20:39;4.00;98.20
43338;DHT22;28933;52.492;13.434;2024-01-16T21:23:25;3.90;98.20
43338;DHT22;28933;52.492;13.434;2024-01-16T21:26:12;3.80;98.20
43338;DHT22;28933;52.492;13.434;2024-01-16T21:28:57;3.80;98.20
43338;DHT22;28933;52.492;13.434;2024-01-16T21:31:44;3.80;98.40
43338;DHT22;28933;52.492;13.434;2024-01-16T21:34:30;3.70;98.20
43338;DHT22;28933;52.492;13.434;2024-01-16T21:37:16;3.70;98.20
43338;DHT22;28933;52.492;13.434;2024-01-16T21:40:02;3.70;98.30
43338;DHT22;28933;52.492;13.434;2024-01-16T21:42:48;3.70;98.30
43338;DHT22;28933;52.492;13.434;2024-01-16T21:45:34;3.60;98.30
43338;DHT22;28933;52.492;13.434;2024-01-16T21:48:21;3.60;98.30
43338;DHT22;28933;52.492;13.434;2024-01-16T21:51:06;3.60;98.30
43338;DHT22;28933;52.492;13.434;2024-01-16T21:53:53;3.50;98.20
43338;DHT22;28933;52.492;13.434;2024-01-16T21:56:39;3.50;98.50
43338;DHT22;28933;52.492;13.434;2024-01-16T21:59:25;3.50;98.30
43338;DHT22;28933;52.492;13.434;2024-01-16T22:02:11;3.40;98.30
43338;DHT22;28933;52.492;13.434;2024-01-16T22:04:59;3.40;98.30
43338;DHT22;28933;52.492;13.434;2024-01-16T22:07:45;3.40;98.30
43338;DHT22;28933;52.492;13.434;2024-01-16T22:10:31;3.40;98.30
43338;DHT22;28933;52.492;13.434;2024-01-16T22:13:16;3.40;98.30
43338;DHT22;28933;52.492;13.434;2024-01-16T22:16:04;3.40;98.30
43338;DHT22;28933;52.492;13.434;2024-01-16T22:18:51;3.40;98.30
43338;DHT22;28933;52.492;13.434;2024-01-16T22:21:37;3.40;98.40
43338;DHT22;28933;52.492;13.434;2024-01-16T22:24:23;3.40;98.40
43338;DHT22;28933;52.492;13.434;2024-01-16T22:27:09;3.40;98.30
43338;DHT22;28933;52.492;13.434;2024-01-16T22:29:55;3.50;98.30
43338;DHT22;28933;52.492;13.434;2024-01-16T22:32:41;3.40;98.30
43338;DHT22;28933;52.492;13.434;2024-01-16T22:35:26;3.40;98.30
43338;DHT22;28933;52.492;13.434;2024-01-16T22:38:12;3.40;98.30
43338;DHT22;28933;52.492;13.434;2024-01-16T22:40:58;3.30;98.30
43338;DHT22;28933;52.492;13.434;2024-01-16T22:43:44;3.30;98.30
43338;DHT22;28933;52.492;13.434;2024-01-16T22:46:30;3.20;98.20
43338;DHT22;28933;52.492;13.434;2024-01-16T22:49:16;3.20;98.20
43338;DHT22;28933;52.492;13.434;2024-01-16T22:52:02;3.20;98.20
43338;DHT22;28933;52.492;13.434;2024-01-16T22:54:49;3.10;98.20
43338;DHT22;28933;52.492;13.434;2024-01-16T22:57:35;3.00;98.10
43338;DHT22;28933;52.492;13.434;2024-01-16T23:00:21;3.00;98.10
43338;DHT22;28933;52.492;13.434;2024-01-16T23:03:07;2.90;98.10
43338;DHT22;28933;52.492;13.434;2024-01-16T23:05:55;2.90;98.20
43338;DHT22;28933;52.492;13.434;2024-01-16T23:08:40;2.80;98.10
43338;DHT22;28933;52.492;13.434;2024-01-16T23:11:27;2.70;98.10
43338;DHT22;28933;52.492;13.434;2024-01-16T23:14:13;2.60;98.10
43338;DHT22;28933;52.492;13.434;2024-01-16T23:16:59;2.60;98.20
43338;DHT22;28933;52.492;13.434;2024-01-16T23:19:45;2.50;98.20
43338;DHT22;28933;52.492;13.434;2024-01-16T23:22:30;2.50;98.20
43338;DHT22;28933;52.492;13.434;2024-01-16T23:25:16;2.40;98.20
43338;DHT22;28933;52.492;13.434;2024-01-16T23:28:03;2.40;98.30
43338;DHT22;28933;52.492;13.434;2024-01-16T23:30:49;2.40;98.30
43338;DHT22;28933;52.492;13.434;2024-01-16T23:33:35;2.40;98.40
43338;DHT22;28933;52.492;13.434;2024-01-16T23:36:21;2.40;98.40
43338;DHT22;28933;52.492;13.434;2024-01-16T23:39:07;2.30;98.40
43338;DHT22;28933;52.492;13.434;2024-01-16T23:41:56;2.30;98.40
43338;DHT22;28933;52.492;13.434;2024-01-16T23:44:42;2.30;98.40
43338;DHT22;28933;52.492;13.434;2024-01-16T23:47:28;2.30;98.40
43338;DHT22;28933;52.492;13.434;2024-01-16T23:50:14;2.20;98.40
43338;DHT22;28933;52.492;13.434;2024-01-16T23:53:02;2.20;98.50
43338;DHT22;28933;52.492;13.434;2024-01-16T23:55:49;2.10;98.50
43338;DHT22;28933;52.492;13.434;2024-01-16T23:58:36;2.10;98.70
